Marica, Brazil
Current Conditions -  °F | °C
As of 6:00 PM on Thursday 23 Oct 2014 (Local Time) from SBRJ Reporting Station
Few Clouds Few Clouds  
Wind Chill: 73°   Ceiling: Unl
Heat Index: 73°   Visibility: 6mi
Dew Point: 64°   Wind: 15mph
Humidity: 73%   Direction: 130°SE
Pressure: 30"   Gusts: NA
Location:  22.92°S, 42.82°W
Report Text: SBRJ 232000Z 13013KT 9999 FEW030 23/18 Q1016
Loading
Personal Weather Stations






























Interactive Weather Map
Tropical Storm Tracking
New forecast layout! Learn more

10-Day Weather Forecast

Advertisements
Track Severe Weather on mobile